Time;durP1;ratioP1;P1;durP2;ratioP2;P2;SDS_P1;SDS_P2;PMS_P1;PMS_P2;Temp;Humidity;BMP_temperature;BMP_pressure;BME280_temperature;BME280_humidity;BME280_pressure;Samples;Min_cycle;Max_cycle;Signal;HPM_P1;HPM_P2
2023/08/25 00:02:22;;;;;;;3.33;1.40;;;20.80;99.90;;;;;;5059197;28;20508;-68
2023/08/25 00:04:49;;;;;;;2.83;1.20;;;20.80;99.90;;;;;;5058958;28;20316;-68
2023/08/25 00:07:17;;;;;;;2.03;1.50;;;20.80;99.90;;;;;;5062739;28;20199;-68
2023/08/25 00:09:48;;;;;;;2.85;1.20;;;20.80;99.90;;;;;;5077135;28;20201;-68
2023/08/25 00:12:14;;;;;;;1.13;1.00;;;20.80;99.90;;;;;;5055051;28;20232;-68
2023/08/25 00:14:42;;;;;;;1.30;1.20;;;20.80;99.90;;;;;;5058424;28;20223;-67
2023/08/25 00:17:08;;;;;;;2.75;1.35;;;20.80;99.90;;;;;;5058603;28;20260;-68
2023/08/25 00:19:39;;;;;;;3.00;1.20;;;20.80;99.90;;;;;;5058232;28;20217;-67
2023/08/25 00:22:05;;;;;;;3.92;1.30;;;20.80;99.90;;;;;;5057292;28;20200;-67
2023/08/25 00:24:33;;;;;;;2.00;1.10;;;20.80;99.90;;;;;;5058490;28;20191;-67
2023/08/25 00:27:02;;;;;;;2.17;1.20;;;20.80;99.90;;;;;;5063672;28;20209;-68
2023/08/25 00:29:27;;;;;;;3.05;1.30;;;20.80;99.90;;;;;;5062098;28;20179;-67
2023/08/25 00:31:53;;;;;;;2.00;1.33;;;20.80;99.90;;;;;;5057894;28;20196;-68
2023/08/25 00:34:21;;;;;;;1.25;1.13;;;20.80;99.90;;;;;;5056910;28;20187;-68
2023/08/25 00:36:47;;;;;;;1.55;1.30;;;20.80;99.90;;;;;;5055950;28;20184;-67
2023/08/25 00:39:15;;;;;;;1.80;1.30;;;20.70;99.90;;;;;;5048843;28;20197;-67
2023/08/25 00:41:40;;;;;;;1.90;1.20;;;20.70;99.90;;;;;;5058094;28;20179;-68
2023/08/25 00:44:06;;;;;;;1.85;1.30;;;20.80;99.90;;;;;;5058242;28;20271;-68
2023/08/25 00:46:32;;;;;;;2.33;1.65;;;20.70;99.90;;;;;;5059637;28;20239;-67
2023/08/25 00:49:00;;;;;;;1.73;1.23;;;20.70;99.90;;;;;;5054504;28;20276;-67
2023/08/25 00:51:26;;;;;;;4.63;1.90;;;20.70;99.90;;;;;;5054132;28;20180;-68
2023/08/25 00:53:53;;;;;;;3.15;1.70;;;20.70;99.90;;;;;;5072398;28;20172;-68
2023/08/25 00:56:19;;;;;;;2.67;1.80;;;20.70;99.90;;;;;;5053237;28;20207;-65
2023/08/25 00:58:45;;;;;;;2.15;1.60;;;20.70;99.90;;;;;;5039462;28;20193;-66
2023/08/25 01:01:11;;;;;;;2.00;1.40;;;20.70;99.90;;;;;;5057738;28;20192;-67
2023/08/25 01:03:38;;;;;;;2.95;1.92;;;20.70;99.90;;;;;;5057721;28;20194;-69
2023/08/25 01:06:05;;;;;;;2.95;2.00;;;20.70;99.90;;;;;;5057753;28;20192;-68
2023/08/25 01:08:33;;;;;;;2.25;1.60;;;20.70;99.90;;;;;;5057871;28;20182;-68
2023/08/25 01:11:30;;;;;;;1.88;1.60;;;20.70;99.90;;;;;;5058215;28;20210;-67
2023/08/25 01:14:11;;;;;;;3.78;1.55;;;20.70;99.90;;;;;;5058851;28;20185;-68
2023/08/25 01:16:51;;;;;;;2.63;1.60;;;20.70;99.90;;;;;;5067601;28;20176;-68
2023/08/25 01:19:33;;;;;;;2.10;1.27;;;20.70;99.90;;;;;;5057508;28;20215;-68
2023/08/25 01:22:02;;;;;;;1.30;1.20;;;20.70;99.90;;;;;;5074327;28;20165;-68
2023/08/25 01:24:30;;;;;;;2.22;1.42;;;20.70;99.90;;;;;;5054973;28;20196;-68
2023/08/25 01:26:58;;;;;;;1.77;1.35;;;20.70;99.90;;;;;;5054154;28;20173;-68
2023/08/25 01:29:26;;;;;;;1.77;1.20;;;20.70;99.90;;;;;;5046503;28;20177;-68
2023/08/25 01:31:52;;;;;;;2.35;1.25;;;20.70;99.90;;;;;;5057459;28;20204;-68
2023/08/25 01:34:18;;;;;;;1.77;1.23;;;20.60;99.90;;;;;;5045039;28;20170;-68
2023/08/25 01:36:58;;;;;;;1.52;1.30;;;20.60;99.90;;;;;;5050315;28;20184;-68
2023/08/25 01:39:27;;;;;;;2.50;1.08;;;20.60;99.90;;;;;;5040770;28;20199;-67
2023/08/25 01:41:59;;;;;;;1.27;1.13;;;20.60;99.90;;;;;;5057280;28;20177;-68
2023/08/25 01:44:27;;;;;;;1.98;1.23;;;20.60;99.90;;;;;;5053854;28;20256;-68
2023/08/25 01:47:01;;;;;;;2.25;1.40;;;20.50;99.90;;;;;;5055840;28;20177;-67
2023/08/25 01:49:28;;;;;;;2.92;1.30;;;20.50;99.90;;;;;;5061440;28;20203;-67
2023/08/25 01:51:55;;;;;;;2.45;1.33;;;20.50;99.90;;;;;;5071245;28;20192;-66
2023/08/25 01:54:23;;;;;;;1.90;1.27;;;20.50;99.90;;;;;;5057221;28;20172;-68
2023/08/25 01:56:48;;;;;;;1.50;1.40;;;20.40;99.90;;;;;;5056840;28;20196;-65
2023/08/25 01:59:16;;;;;;;1.95;1.17;;;20.40;99.90;;;;;;5055723;28;20231;-67
2023/08/25 02:01:42;;;;;;;2.30;1.17;;;20.40;99.90;;;;;;5057058;28;20173;-67
2023/08/25 02:04:10;;;;;;;1.63;1.30;;;20.40;99.90;;;;;;5064543;28;20219;-67
2023/08/25 02:06:38;;;;;;;1.63;1.10;;;20.40;99.90;;;;;;5063631;28;20177;-67
2023/08/25 02:09:04;;;;;;;3.90;1.40;;;20.40;99.90;;;;;;5060738;28;20177;-65
2023/08/25 02:11:30;;;;;;;2.28;1.33;;;20.50;99.90;;;;;;5056793;28;20484;-64
2023/08/25 02:13:58;;;;;;;3.65;1.27;;;20.40;99.90;;;;;;5059996;28;20172;-67
2023/08/25 02:16:26;;;;;;;2.45;1.40;;;20.50;99.90;;;;;;5058916;28;20211;-67
2023/08/25 02:18:54;;;;;;;3.38;1.50;;;20.50;99.90;;;;;;5060844;28;20172;-66
2023/08/25 02:21:24;;;;;;;1.63;1.30;;;20.50;99.90;;;;;;5059193;28;20207;-66
2023/08/25 02:23:54;;;;;;;2.45;1.38;;;20.50;99.90;;;;;;5059812;28;20196;-67
2023/08/25 02:26:22;;;;;;;2.05;1.40;;;20.50;99.90;;;;;;5060403;28;20179;-67
2023/08/25 02:28:50;;;;;;;2.38;1.42;;;20.50;99.90;;;;;;5060392;28;20169;-67
2023/08/25 02:31:17;;;;;;;1.88;1.40;;;20.50;99.90;;;;;;5060230;28;20172;-67
2023/08/25 02:33:43;;;;;;;2.92;1.20;;;20.60;99.90;;;;;;5060025;28;20183;-67
2023/08/25 02:36:13;;;;;;;3.38;1.42;;;20.60;99.90;;;;;;5060254;28;20287;-67
2023/08/25 02:38:39;;;;;;;4.10;1.45;;;20.60;99.90;;;;;;5059740;28;20200;-67
2023/08/25 02:41:07;;;;;;;3.20;1.60;;;20.60;99.90;;;;;;5060341;28;20211;-67
2023/08/25 02:43:33;;;;;;;4.28;1.50;;;20.60;99.90;;;;;;5055206;28;20247;-66
2023/08/25 02:46:01;;;;;;;1.70;1.55;;;20.60;99.90;;;;;;5056672;28;20185;-66
2023/08/25 02:48:29;;;;;;;1.98;1.30;;;20.60;99.90;;;;;;5055724;28;20234;-68
2023/08/25 02:50:57;;;;;;;2.30;1.70;;;20.60;99.90;;;;;;5060530;28;20184;-67
2023/08/25 02:53:29;;;;;;;3.28;1.90;;;20.60;99.90;;;;;;5043496;28;20302;-67
2023/08/25 02:55:54;;;;;;;2.58;1.65;;;20.60;99.90;;;;;;5058658;28;20197;-68
2023/08/25 02:58:22;;;;;;;1.92;1.60;;;20.60;99.90;;;;;;5063532;28;20231;-66
2023/08/25 03:00:48;;;;;;;2.38;1.48;;;20.60;99.90;;;;;;5060135;28;20169;-67
2023/08/25 03:03:16;;;;;;;3.25;1.80;;;20.60;99.90;;;;;;5058728;28;20276;-68
2023/08/25 03:05:44;;;;;;;1.95;1.40;;;20.60;99.90;;;;;;5044128;28;20177;-68
2023/08/25 03:08:12;;;;;;;1.67;1.50;;;20.60;99.90;;;;;;5059501;28;20228;-68
2023/08/25 03:10:41;;;;;;;2.75;1.90;;;20.60;99.90;;;;;;5060138;28;20176;-67
2023/08/25 03:13:07;;;;;;;2.13;1.60;;;20.60;99.90;;;;;;5059199;28;20208;-66
2023/08/25 03:15:34;;;;;;;2.67;1.80;;;20.60;99.90;;;;;;5069374;28;20204;-67
2023/08/25 03:18:00;;;;;;;2.50;1.63;;;20.60;99.90;;;;;;5059684;28;20280;-67
2023/08/25 03:20:28;;;;;;;1.80;1.42;;;20.60;99.90;;;;;;5056640;28;20242;-66
2023/08/25 03:22:54;;;;;;;1.92;1.48;;;20.60;99.90;;;;;;5064398;28;20165;-68
2023/08/25 03:25:21;;;;;;;3.22;1.50;;;20.60;99.90;;;;;;5052460;28;20198;-67
2023/08/25 03:27:47;;;;;;;1.98;1.52;;;20.60;99.90;;;;;;5053133;28;20205;-66
2023/08/25 03:30:13;;;;;;;3.58;1.58;;;20.50;99.90;;;;;;5050199;28;20188;-67
2023/08/25 03:32:41;;;;;;;4.03;1.90;;;20.50;99.90;;;;;;5057483;28;20226;-68
2023/08/25 03:35:06;;;;;;;2.28;1.80;;;20.60;99.90;;;;;;5059374;28;20209;-67
2023/08/25 03:37:34;;;;;;;2.03;1.80;;;20.50;99.90;;;;;;5059310;28;20173;-64
2023/08/25 03:40:03;;;;;;;3.85;2.15;;;20.50;99.90;;;;;;5047164;28;20201;-66
2023/08/25 03:42:29;;;;;;;2.40;2.20;;;20.60;99.90;;;;;;5075819;28;20179;-67
2023/08/25 03:45:01;;;;;;;2.38;1.90;;;20.50;99.90;;;;;;5075242;28;20303;-67
2023/08/25 03:47:27;;;;;;;2.47;2.13;;;20.50;99.90;;;;;;5063175;28;20435;-68
2023/08/25 03:49:53;;;;;;;2.25;2.05;;;20.60;99.90;;;;;;5052689;28;20200;-67
2023/08/25 03:52:18;;;;;;;2.95;2.03;;;20.60;99.90;;;;;;5039173;28;20204;-67
2023/08/25 03:54:44;;;;;;;2.90;2.20;;;20.60;99.90;;;;;;5045755;28;20255;-67
2023/08/25 03:57:12;;;;;;;3.22;2.28;;;20.60;99.90;;;;;;5058768;28;20204;-67
2023/08/25 03:59:42;;;;;;;6.95;2.70;;;20.60;99.90;;;;;;5059323;28;20192;-67
2023/08/25 04:02:08;;;;;;;2.67;2.47;;;20.60;99.90;;;;;;5056006;28;20201;-67
2023/08/25 04:04:36;;;;;;;3.88;2.63;;;20.60;99.90;;;;;;5058761;28;20184;-67
2023/08/25 04:07:01;;;;;;;3.35;2.97;;;20.60;99.90;;;;;;5057668;28;20188;-67
2023/08/25 04:09:29;;;;;;;4.72;2.60;;;20.60;99.90;;;;;;5058035;28;20184;-68
2023/08/25 04:11:55;;;;;;;3.33;2.78;;;20.60;99.90;;;;;;5056914;28;20428;-67
2023/08/25 04:14:24;;;;;;;3.50;2.60;;;20.60;99.90;;;;;;5059208;28;20164;-68
2023/08/25 04:16:49;;;;;;;3.53;2.78;;;20.60;99.90;;;;;;5058666;28;20199;-68
2023/08/25 04:19:16;;;;;;;3.75;2.75;;;20.60;99.90;;;;;;5057468;28;20192;-68
2023/08/25 04:21:47;;;;;;;3.22;2.78;;;20.60;99.90;;;;;;5054220;28;20189;-68
2023/08/25 04:24:13;;;;;;;3.78;2.55;;;20.60;99.90;;;;;;5063694;28;20253;-68
2023/08/25 04:26:38;;;;;;;5.47;2.47;;;20.70;99.90;;;;;;5058066;28;20207;-68
2023/08/25 04:29:06;;;;;;;3.47;3.00;;;20.70;99.90;;;;;;5056479;28;20172;-68
2023/08/25 04:31:34;;;;;;;3.65;2.72;;;20.70;99.90;;;;;;5052031;28;20201;-68
2023/08/25 04:34:07;;;;;;;2.90;2.60;;;20.70;99.90;;;;;;5058828;28;20202;-68
2023/08/25 04:36:34;;;;;;;3.65;2.72;;;20.80;99.90;;;;;;5053267;28;20175;-68
2023/08/25 04:38:59;;;;;;;2.90;2.60;;;20.80;99.90;;;;;;5058681;28;20180;-68
2023/08/25 04:41:25;;;;;;;2.78;2.50;;;20.80;99.90;;;;;;5039385;28;20230;-68
2023/08/25 04:43:51;;;;;;;3.17;2.45;;;20.80;99.90;;;;;;5055268;28;20211;-68
2023/08/25 04:46:18;;;;;;;3.22;2.72;;;20.80;99.90;;;;;;5065549;28;20180;-68
2023/08/25 04:48:46;;;;;;;4.07;2.55;;;20.80;99.90;;;;;;5057855;28;20201;-69
2023/08/25 04:51:14;;;;;;;2.55;2.08;;;20.80;99.90;;;;;;5056657;28;20212;-68
2023/08/25 04:53:42;;;;;;;3.08;2.78;;;20.80;99.90;;;;;;5058759;28;20204;-70
2023/08/25 04:56:09;;;;;;;2.70;2.30;;;20.90;99.90;;;;;;5057565;28;20182;-70
2023/08/25 04:58:35;;;;;;;3.50;2.70;;;20.90;99.90;;;;;;5058155;28;20199;-69
2023/08/25 05:01:03;;;;;;;3.05;2.40;;;20.90;99.90;;;;;;5058663;28;20193;-68
2023/08/25 05:03:32;;;;;;;4.05;2.30;;;20.90;99.90;;;;;;5058043;28;20370;-68
2023/08/25 05:05:57;;;;;;;3.08;2.35;;;21.00;99.90;;;;;;5058300;28;20251;-68
2023/08/25 05:08:23;;;;;;;2.25;2.05;;;20.90;99.90;;;;;;5058376;28;20204;-68
2023/08/25 05:10:51;;;;;;;2.60;2.40;;;20.90;99.90;;;;;;5057800;28;20204;-67
2023/08/25 05:13:16;;;;;;;3.53;2.58;;;21.00;99.90;;;;;;5057686;28;20207;-68
2023/08/25 05:15:43;;;;;;;2.35;2.15;;;21.00;99.90;;;;;;5057804;28;20165;-67
2023/08/25 05:18:10;;;;;;;2.80;2.15;;;21.00;99.90;;;;;;5058154;28;20207;-67
2023/08/25 05:20:36;;;;;;;2.78;2.10;;;21.00;99.90;;;;;;5058001;28;20169;-68
2023/08/25 05:23:05;;;;;;;3.00;2.20;;;21.00;99.90;;;;;;5058145;28;20216;-69
2023/08/25 05:25:32;;;;;;;2.92;2.40;;;21.10;99.90;;;;;;5057714;28;20263;-68
2023/08/25 05:28:00;;;;;;;3.55;2.60;;;21.10;99.90;;;;;;5058631;28;20172;-67
2023/08/25 05:30:26;;;;;;;3.67;2.83;;;21.10;99.90;;;;;;5058106;28;20200;-68
2023/08/25 05:32:51;;;;;;;2.85;2.33;;;21.10;99.90;;;;;;5054624;28;20291;-67
2023/08/25 05:35:17;;;;;;;3.03;2.67;;;21.10;99.90;;;;;;5038354;28;20201;-67
2023/08/25 05:37:43;;;;;;;3.40;2.58;;;21.10;99.90;;;;;;5059802;28;20263;-66
2023/08/25 05:40:09;;;;;;;2.85;2.40;;;21.10;99.90;;;;;;5060928;28;20222;-67
2023/08/25 05:42:40;;;;;;;4.55;2.33;;;21.10;99.90;;;;;;5061262;28;20206;-66
2023/08/25 05:45:07;;;;;;;4.13;2.42;;;21.20;99.90;;;;;;5061284;28;20200;-66
2023/08/25 05:47:33;;;;;;;4.53;2.92;;;21.10;99.90;;;;;;5060984;28;20168;-65
2023/08/25 05:50:00;;;;;;;7.25;2.60;;;21.20;99.90;;;;;;5061285;28;20213;-67
2023/08/25 05:52:26;;;;;;;3.08;2.17;;;21.10;99.90;;;;;;5061113;28;20196;-66
2023/08/25 05:54:54;;;;;;;2.80;2.50;;;21.10;99.90;;;;;;5061050;28;20198;-66
2023/08/25 05:57:24;;;;;;;3.25;2.75;;;21.10;99.90;;;;;;5061078;28;20263;-65
2023/08/25 05:59:54;;;;;;;3.00;2.60;;;21.10;99.90;;;;;;5060807;28;20263;-68
2023/08/25 06:02:20;;;;;;;3.75;2.75;;;21.20;99.90;;;;;;5060410;28;20203;-67
2023/08/25 06:04:45;;;;;;;2.33;2.13;;;21.20;99.90;;;;;;5060903;28;20184;-67
2023/08/25 06:07:11;;;;;;;2.75;2.55;;;21.20;99.90;;;;;;5061031;28;20172;-68
2023/08/25 06:09:39;;;;;;;2.97;2.50;;;21.20;99.90;;;;;;5061258;28;20267;-67
2023/08/25 06:12:05;;;;;;;4.40;3.05;;;21.20;99.90;;;;;;5060958;28;20196;-66
2023/08/25 06:14:31;;;;;;;4.03;3.00;;;21.20;99.90;;;;;;5060649;28;20193;-67
2023/08/25 06:17:02;;;;;;;4.00;2.70;;;21.30;99.90;;;;;;5060697;28;20172;-67
2023/08/25 06:19:28;;;;;;;2.92;2.30;;;21.30;99.90;;;;;;5060975;28;20323;-66
2023/08/25 06:21:54;;;;;;;2.80;2.45;;;21.30;99.90;;;;;;5060864;28;20217;-67
2023/08/25 06:24:19;;;;;;;3.92;2.45;;;21.30;99.90;;;;;;5061454;28;20295;-66
2023/08/25 06:26:47;;;;;;;2.40;2.20;;;21.30;99.90;;;;;;5060664;28;20197;-66
2023/08/25 06:29:13;;;;;;;3.08;2.20;;;21.40;99.90;;;;;;5044653;28;20177;-65
2023/08/25 06:31:39;;;;;;;3.25;2.40;;;21.40;99.90;;;;;;5060381;28;20190;-65
2023/08/25 06:34:04;;;;;;;2.90;2.20;;;21.40;99.90;;;;;;5060718;28;20317;-64
2023/08/25 06:36:32;;;;;;;2.65;2.10;;;21.40;99.90;;;;;;5060660;28;20183;-65
2023/08/25 06:38:58;;;;;;;2.92;2.22;;;21.40;99.90;;;;;;5060761;28;20192;-65
2023/08/25 06:41:26;;;;;;;2.13;1.92;;;21.40;99.90;;;;;;5060652;28;20168;-65
2023/08/25 06:43:53;;;;;;;3.58;2.30;;;21.50;99.90;;;;;;5054395;28;20256;-67
2023/08/25 06:46:19;;;;;;;2.35;2.00;;;21.50;99.90;;;;;;5060339;28;20250;-67
2023/08/25 06:48:47;;;;;;;2.45;2.00;;;21.50;99.90;;;;;;5058609;28;20247;-65
2023/08/25 06:51:12;;;;;;;2.40;2.10;;;21.50;99.90;;;;;;5059738;28;20207;-65
2023/08/25 06:53:38;;;;;;;2.83;2.25;;;21.60;99.90;;;;;;5059839;28;20197;-67
2023/08/25 06:56:04;;;;;;;2.70;2.20;;;21.70;99.90;;;;;;5059563;28;20199;-65
2023/08/25 06:58:29;;;;;;;4.93;2.28;;;21.70;99.90;;;;;;5059938;28;20172;-67
2023/08/25 07:00:55;;;;;;;2.80;1.92;;;21.80;99.90;;;;;;5060134;28;20169;-66
2023/08/25 07:03:20;;;;;;;2.17;1.90;;;21.90;99.90;;;;;;5059793;28;20197;-66
2023/08/25 07:05:46;;;;;;;2.40;2.15;;;22.00;99.90;;;;;;5060014;28;20191;-66
2023/08/25 07:08:12;;;;;;;3.30;2.22;;;22.10;99.90;;;;;;5059785;28;20176;-66
2023/08/25 07:10:38;;;;;;;3.15;2.20;;;22.10;99.90;;;;;;5059543;28;20184;-66
2023/08/25 07:13:06;;;;;;;3.25;2.30;;;22.20;99.90;;;;;;5059634;28;20197;-66
2023/08/25 07:15:32;;;;;;;3.58;2.20;;;22.20;99.90;;;;;;5059489;28;20195;-66
2023/08/25 07:17:57;;;;;;;2.47;1.92;;;22.30;99.90;;;;;;5059651;28;20168;-65
2023/08/25 07:20:25;;;;;;;2.95;2.33;;;22.30;99.90;;;;;;5059343;28;20173;-66
2023/08/25 07:22:51;;;;;;;3.67;2.40;;;22.30;99.90;;;;;;5059414;28;20168;-66
2023/08/25 07:25:16;;;;;;;2.60;2.30;;;22.30;99.90;;;;;;5059675;28;20191;-65
2023/08/25 07:27:44;;;;;;;2.25;2.03;;;22.30;99.90;;;;;;5059077;28;20222;-66
2023/08/25 07:30:10;;;;;;;2.53;2.20;;;22.40;99.90;;;;;;5059455;28;20234;-66
2023/08/25 07:32:36;;;;;;;2.75;2.10;;;22.40;99.90;;;;;;5059070;28;20197;-67
2023/08/25 07:35:01;;;;;;;3.78;2.22;;;22.50;99.90;;;;;;5059235;28;20177;-67
2023/08/25 07:37:27;;;;;;;3.35;2.22;;;22.60;99.90;;;;;;5059209;28;20272;-66
2023/08/25 07:39:54;;;;;;;1.95;1.83;;;22.60;99.90;;;;;;5059009;28;20201;-66
2023/08/25 07:42:21;;;;;;;2.85;2.38;;;22.70;99.90;;;;;;5059170;28;20173;-65
2023/08/25 07:44:47;;;;;;;2.50;2.20;;;22.80;99.90;;;;;;5058998;28;20168;-65
2023/08/25 07:47:13;;;;;;;3.35;2.50;;;22.90;99.90;;;;;;5058923;28;20312;-65
2023/08/25 07:49:44;;;;;;;2.55;2.30;;;23.00;99.90;;;;;;5059197;28;20224;-66
2023/08/25 07:52:12;;;;;;;3.58;2.80;;;23.10;99.90;;;;;;5058831;28;20498;-65
2023/08/25 07:54:40;;;;;;;3.72;3.05;;;23.10;99.90;;;;;;5058882;28;20188;-66
2023/08/25 07:57:05;;;;;;;3.28;2.72;;;23.10;99.90;;;;;;5058616;28;20168;-66
2023/08/25 07:59:33;;;;;;;3.47;2.70;;;23.10;99.90;;;;;;5058435;28;20176;-65
2023/08/25 08:02:03;;;;;;;3.05;2.70;;;23.10;99.90;;;;;;5058424;28;20275;-66
2023/08/25 08:04:30;;;;;;;4.95;2.75;;;23.10;99.90;;;;;;5070177;28;20230;-66
2023/08/25 08:07:01;;;;;;;3.15;2.65;;;23.10;99.90;;;;;;5058686;28;20234;-68
2023/08/25 08:09:31;;;;;;;2.78;2.38;;;23.10;99.90;;;;;;5058538;28;20256;-66
2023/08/25 08:11:57;;;;;;;5.32;3.03;;;23.10;99.90;;;;;;5058620;28;20228;-66
2023/08/25 08:14:23;;;;;;;3.65;2.63;;;23.10;99.90;;;;;;5058633;28;20168;-65
2023/08/25 08:16:49;;;;;;;3.97;2.88;;;23.10;99.90;;;;;;5058208;28;20291;-67
2023/08/25 08:19:17;;;;;;;3.35;2.92;;;23.00;99.90;;;;;;5058216;28;20173;-66
2023/08/25 08:21:42;;;;;;;3.25;2.95;;;23.00;99.90;;;;;;5058588;28;20271;-67
2023/08/25 08:24:09;;;;;;;3.63;2.88;;;23.00;99.90;;;;;;5058192;28;20349;-67
2023/08/25 08:26:36;;;;;;;3.17;2.88;;;23.00;99.90;;;;;;5071544;28;20184;-67
2023/08/25 08:29:02;;;;;;;3.42;3.05;;;23.00;99.90;;;;;;5058337;28;20189;-67
2023/08/25 08:31:29;;;;;;;3.22;2.83;;;23.00;99.90;;;;;;5061373;28;20175;-67
2023/08/25 08:33:54;;;;;;;2.95;2.65;;;22.90;99.90;;;;;;5073178;28;20215;-66
2023/08/25 08:36:23;;;;;;;2.85;2.60;;;22.90;99.90;;;;;;5057934;28;20220;-66
2023/08/25 08:38:51;;;;;;;3.35;2.65;;;22.90;99.90;;;;;;5058257;28;20161;-65
2023/08/25 08:41:17;;;;;;;3.10;2.80;;;22.90;99.90;;;;;;5058077;28;20192;-66
2023/08/25 08:43:45;;;;;;;3.88;3.10;;;22.90;99.90;;;;;;5058034;28;20176;-65
2023/08/25 08:46:16;;;;;;;3.15;2.85;;;22.90;99.90;;;;;;5058149;28;20434;-65
2023/08/25 08:48:43;;;;;;;3.30;3.00;;;23.00;99.90;;;;;;5057830;28;20236;-65
2023/08/25 08:51:10;;;;;;;3.15;2.55;;;23.00;99.90;;;;;;5058287;28;20183;-66
2023/08/25 08:53:41;;;;;;;2.97;2.50;;;23.00;99.90;;;;;;5057913;28;20200;-65
2023/08/25 08:56:10;;;;;;;3.80;2.78;;;23.00;99.90;;;;;;5052264;28;20177;-66
2023/08/25 08:58:35;;;;;;;4.13;2.90;;;23.10;99.90;;;;;;5037994;28;20222;-66
2023/08/25 09:01:03;;;;;;;3.00;2.70;;;23.10;99.90;;;;;;5037817;28;20189;-66
2023/08/25 09:03:33;;;;;;;3.20;2.58;;;23.20;99.90;;;;;;5047680;28;20249;-65
2023/08/25 09:06:03;;;;;;;4.70;2.60;;;23.30;99.90;;;;;;5037637;28;20173;-65
2023/08/25 09:08:33;;;;;;;4.10;2.67;;;23.40;99.90;;;;;;5038957;28;20172;-65
2023/08/25 09:11:10;;;;;;;4.20;3.05;;;23.40;99.90;;;;;;5057748;28;20287;-66
2023/08/25 09:13:35;;;;;;;3.53;3.00;;;23.40;99.90;;;;;;5074965;28;20200;-66
2023/08/25 09:16:17;;;;;;;3.15;2.85;;;23.50;99.90;;;;;;5058048;28;20175;-66
2023/08/25 09:18:45;;;;;;;3.33;3.00;;;23.50;99.90;;;;;;5057436;28;20196;-66
2023/08/25 09:21:22;;;;;;;3.53;2.97;;;23.60;99.90;;;;;;5057767;28;20176;-66
2023/08/25 09:23:56;;;;;;;4.80;3.35;;;23.50;99.90;;;;;;5057827;28;20169;-67
2023/08/25 09:26:25;;;;;;;4.70;3.30;;;23.50;99.90;;;;;;5057968;28;20219;-66
2023/08/25 09:28:55;;;;;;;3.55;3.25;;;23.50;99.90;;;;;;5057765;28;20191;-67
2023/08/25 09:31:23;;;;;;;4.00;3.60;;;23.50;99.90;;;;;;5057500;28;20286;-67
2023/08/25 09:33:50;;;;;;;3.88;3.30;;;23.40;99.90;;;;;;5057740;28;20199;-66
2023/08/25 09:36:16;;;;;;;3.78;3.30;;;23.40;99.90;;;;;;5057585;28;20164;-66
2023/08/25 09:38:46;;;;;;;4.35;3.20;;;23.40;99.90;;;;;;5057628;28;20317;-66
2023/08/25 09:41:23;;;;;;;3.42;3.13;;;23.30;99.90;;;;;;5057669;28;20256;-66
2023/08/25 09:43:59;;;;;;;4.60;3.25;;;23.30;99.90;;;;;;5057392;28;20250;-66
2023/08/25 09:46:29;;;;;;;3.38;3.08;;;23.20;99.90;;;;;;5057658;28;20177;-66
2023/08/25 09:49:10;;;;;;;4.68;3.17;;;23.20;99.90;;;;;;5069117;28;20185;-66
2023/08/25 09:51:36;;;;;;;4.22;3.17;;;23.20;99.90;;;;;;5074480;28;20256;-65
2023/08/25 09:54:12;;;;;;;5.50;3.20;;;23.20;99.90;;;;;;5077725;28;20179;-65
2023/08/25 09:56:39;;;;;;;3.85;3.55;;;23.20;99.90;;;;;;5057877;28;20196;-64
2023/08/25 09:59:07;;;;;;;3.78;3.13;;;23.30;99.90;;;;;;5057405;28;20168;-65
2023/08/25 10:01:34;;;;;;;3.72;3.28;;;23.30;99.90;;;;;;5057089;28;20180;-65
2023/08/25 10:04:04;;;;;;;4.13;3.72;;;23.30;99.90;;;;;;5059014;28;20176;-65
2023/08/25 10:06:34;;;;;;;3.83;3.42;;;23.40;99.90;;;;;;5057059;28;20176;-65
2023/08/25 10:09:00;;;;;;;3.88;3.47;;;23.50;99.90;;;;;;5056923;28;20193;-65
2023/08/25 10:11:36;;;;;;;3.97;3.28;;;23.60;99.90;;;;;;5057357;28;20392;-65
2023/08/25 10:14:10;;;;;;;3.75;3.35;;;23.60;99.90;;;;;;5054041;28;20258;-66
2023/08/25 10:16:49;;;;;;;3.88;3.42;;;23.60;99.90;;;;;;5039398;28;20238;-66
2023/08/25 10:19:15;;;;;;;3.35;2.90;;;23.60;99.90;;;;;;5057103;28;20172;-66
2023/08/25 10:21:49;;;;;;;3.88;3.47;;;23.70;99.90;;;;;;5057022;28;20251;-66
2023/08/25 10:24:16;;;;;;;3.92;3.53;;;23.70;99.90;;;;;;5058477;28;20276;-66
2023/08/25 10:26:44;;;;;;;5.85;3.72;;;23.70;99.90;;;;;;5060674;28;20287;-66
2023/08/25 10:29:17;;;;;;;5.95;4.18;;;23.70;99.90;;;;;;5060921;28;20179;-66
2023/08/25 10:32:02;;;;;;;3.95;3.55;;;23.80;99.90;;;;;;5060529;28;20171;-65
2023/08/25 10:34:32;;;;;;;4.53;3.88;;;23.90;99.90;;;;;;5060673;28;20176;-66
2023/08/25 10:37:04;;;;;;;5.03;3.97;;;24.00;99.90;;;;;;5060362;28;20180;-66
2023/08/25 10:39:44;;;;;;;4.90;3.70;;;24.10;99.90;;;;;;5060263;28;20197;-66
2023/08/25 10:42:12;;;;;;;6.05;4.20;;;24.30;99.90;;;;;;5064353;28;20176;-66
2023/08/25 10:44:41;;;;;;;4.00;3.30;;;24.30;99.90;;;;;;5061235;28;20196;-66
2023/08/25 10:47:08;;;;;;;5.75;3.92;;;24.30;99.90;;;;;;5060514;28;20181;-66
2023/08/25 10:49:42;;;;;;;4.30;3.90;;;24.40;99.90;;;;;;5060142;28;20191;-66
2023/08/25 10:52:22;;;;;;;3.80;3.47;;;24.40;99.90;;;;;;5059854;28;20204;-66
2023/08/25 10:54:53;;;;;;;3.55;3.15;;;24.50;99.90;;;;;;5060426;28;20194;-66
2023/08/25 10:57:28;;;;;;;4.07;3.40;;;24.50;99.90;;;;;;5060363;28;20275;-66
2023/08/25 11:00:17;;;;;;;4.60;3.72;;;24.50;99.90;;;;;;5060056;28;20178;-66
2023/08/25 11:02:42;;;;;;;4.03;3.30;;;24.50;99.90;;;;;;5077044;28;20245;-66
2023/08/25 11:05:28;;;;;;;4.47;3.38;;;24.50;99.90;;;;;;5059821;28;20169;-68
2023/08/25 11:07:55;;;;;;;5.10;3.03;;;24.50;99.90;;;;;;5059810;28;20180;-66
2023/08/25 11:10:27;;;;;;;3.83;3.47;;;24.40;99.90;;;;;;5061038;28;20415;-67
2023/08/25 11:12:54;;;;;;;4.60;3.90;;;24.40;99.90;;;;;;5079735;28;20192;-65
2023/08/25 11:15:23;;;;;;;3.15;2.83;;;24.30;99.90;;;;;;5079767;28;20184;-66
2023/08/25 11:17:51;;;;;;;5.45;3.38;;;24.30;99.90;;;;;;5076532;28;20172;-65
2023/08/25 11:20:17;;;;;;;3.40;3.00;;;24.20;99.90;;;;;;5076303;28;20172;-66
2023/08/25 11:22:52;;;;;;;4.35;3.08;;;24.20;99.90;;;;;;5076356;28;20295;-66
2023/08/25 11:25:18;;;;;;;4.13;3.28;;;24.10;99.90;;;;;;5072151;28;20412;-67
2023/08/25 11:27:51;;;;;;;3.17;2.83;;;24.10;99.90;;;;;;5065491;28;20216;-67
2023/08/25 11:30:17;;;;;;;3.92;3.25;;;24.00;99.90;;;;;;5079626;28;20172;-67
2023/08/25 11:32:52;;;;;;;4.82;3.22;;;24.00;99.90;;;;;;5039567;28;20201;-66
2023/08/25 11:35:17;;;;;;;3.65;3.00;;;23.90;99.90;;;;;;5039088;28;20197;-66
2023/08/25 11:37:46;;;;;;;4.38;3.47;;;23.90;99.90;;;;;;5039769;28;20178;-67
2023/08/25 11:40:17;;;;;;;5.65;3.50;;;23.90;99.90;;;;;;5053879;28;20208;-66
2023/08/25 11:42:46;;;;;;;4.13;3.08;;;23.90;99.90;;;;;;5059432;28;20236;-67
2023/08/25 11:45:12;;;;;;;4.22;3.40;;;23.80;99.90;;;;;;5059215;28;20191;-67
2023/08/25 11:47:38;;;;;;;3.67;3.28;;;23.80;99.90;;;;;;5058914;28;20196;-67
2023/08/25 11:50:05;;;;;;;4.68;3.45;;;23.80;99.90;;;;;;5059185;28;20169;-68
2023/08/25 11:52:35;;;;;;;5.32;3.72;;;23.80;99.90;;;;;;5059270;28;20213;-67
2023/08/25 11:55:04;;;;;;;3.92;3.50;;;23.80;99.90;;;;;;5059240;28;20224;-68
2023/08/25 11:57:38;;;;;;;3.38;3.08;;;23.80;99.90;;;;;;5059373;28;20169;-66
2023/08/25 12:00:10;;;;;;;4.35;3.78;;;23.80;99.90;;;;;;5058702;28;20171;-66
2023/08/25 12:02:35;;;;;;;3.50;3.20;;;23.70;99.90;;;;;;5059381;28;20172;-66
2023/08/25 12:05:03;;;;;;;4.47;3.40;;;23.70;99.90;;;;;;5059445;28;20207;-66
2023/08/25 12:07:33;;;;;;;4.55;3.67;;;23.60;99.90;;;;;;5061876;28;20180;-66
2023/08/25 12:10:05;;;;;;;4.63;3.35;;;23.50;99.90;;;;;;5058910;28;20246;-66
2023/08/25 12:12:37;;;;;;;4.38;3.50;;;23.50;99.90;;;;;;5058667;28;20200;-66
2023/08/25 12:15:08;;;;;;;4.88;3.90;;;23.40;99.90;;;;;;5058974;28;20290;-66
2023/08/25 12:17:35;;;;;;;4.15;3.67;;;23.40;99.90;;;;;;5058826;28;20196;-67
2023/08/25 12:20:15;;;;;;;6.25;3.53;;;23.30;99.90;;;;;;5058924;28;20177;-68
2023/08/25 12:23:00;;;;;;;4.72;3.40;;;23.30;99.90;;;;;;5058682;28;20272;-67
2023/08/25 12:25:26;;;;;;;5.45;4.13;;;23.20;99.90;;;;;;5058336;28;20171;-66
2023/08/25 12:27:57;;;;;;;4.32;3.92;;;23.20;99.90;;;;;;5058543;28;20180;-67
2023/08/25 12:30:23;;;;;;;4.32;3.92;;;23.20;99.90;;;;;;5045158;28;20287;-67
2023/08/25 12:32:51;;;;;;;4.05;3.60;;;23.20;99.90;;;;;;5058516;28;20255;-67
2023/08/25 12:35:19;;;;;;;3.85;3.53;;;23.20;99.90;;;;;;5058296;28;20215;-66
2023/08/25 12:37:45;;;;;;;5.97;4.03;;;23.20;99.90;;;;;;5058675;28;20192;-67
2023/08/25 12:40:13;;;;;;;4.15;3.75;;;23.20;99.90;;;;;;5058128;28;20176;-66
2023/08/25 12:42:39;;;;;;;4.75;3.90;;;23.30;99.90;;;;;;5058284;28;20200;-66
2023/08/25 12:45:08;;;;;;;4.72;4.22;;;23.20;99.90;;;;;;5058529;28;20177;-66
2023/08/25 12:47:33;;;;;;;6.38;3.88;;;23.30;99.90;;;;;;5056266;28;20180;-66
2023/08/25 12:49:59;;;;;;;5.30;4.25;;;23.30;99.90;;;;;;5058337;28;20184;-66
2023/08/25 12:52:26;;;;;;;4.82;4.05;;;23.30;99.90;;;;;;5057726;28;20290;-66
2023/08/25 12:54:52;;;;;;;4.25;3.85;;;23.30;99.90;;;;;;5057543;28;20262;-67